Main page
METAR-TAF:

METAR-TAF

Airports :

Baikal International Airport

Ulan-Ude, Russia

latitude: 51-50N, longitude: 107-36E, elevation: 510 m

Current weather observation

The report was made 30 minutes ago, at 17:00 UTC
Wind 2 kt from variable directions
Temperature 14°C
Humidity 82%
Pressure 1009 hPa
Visibility 10 km or more
Scattered clouds at a height of 4600 ft, Cumulonimbus.

METAR: UIUU 221700Z VRB01MPS 9999 SCT046CB 14/11 Q1009 R26/290255 NOSIG RMK QFE712/0950

Time: 01:30 (17:30 UTC)

Forecast

The report was made 3 hours and 30 minutes ago, at 14:00 UTC
Forecast valid from 22 at 15 UTC to 23 at 15 UTC
Wind 10 kt from the North/Northwest with gusts up to 19 kt
Visibility 10 km or more
Scattered clouds at a height of 4000 ft, Cumulonimbus.
Temporary
from 22 at 15 UTC to 22 at 18 UTC
Wind 6 kt from the Northeast with gusts up to 16 kt
Broken clouds at a height of 1400 ft, Cumulonimbus.
light rain showers

TAF: UIUU 221400Z 2215/2315 34005G10MPS 9999 SCT040CB TEMPO 2215/2218 04003G08MPS -SHRA BKN014CB

Weather observations and forecasts of more than 4000 airports (METAR and TAF reports).

The available stations are represented by yellow and red dots on the map.

Hover mouse over dot to see the name of the station.

Then click to see weather observations and forecasts.

To change the map : click on the green buttons with a black cross to zoom in, on the green button with a dash to zoom out, or on the green arrows for adjacent maps.


METAR-TAF: